sensor_id;sensor_type;location;lat;lon;timestamp;P1;durP1;ratioP1;P2;durP2;ratioP2
75649;SDS011;64245;51.282;22.494;2022-10-29T00:01:20;22.25;;;11.23;;
75649;SDS011;64245;51.282;22.494;2022-10-29T00:03:46;20.27;;;11.43;;
75649;SDS011;64245;51.282;22.494;2022-10-29T00:06:12;22.45;;;11.57;;
75649;SDS011;64245;51.282;22.494;2022-10-29T00:08:39;19.60;;;11.40;;
75649;SDS011;64245;51.282;22.494;2022-10-29T00:11:38;21.35;;;10.95;;
75649;SDS011;64245;51.282;22.494;2022-10-29T00:16:25;22.45;;;12.15;;
75649;SDS011;64245;51.282;22.494;2022-10-29T00:18:53;20.73;;;10.52;;
75649;SDS011;64245;51.282;22.494;2022-10-29T00:21:20;17.73;;;10.48;;
75649;SDS011;64245;51.282;22.494;2022-10-29T00:23:48;22.88;;;12.68;;
75649;SDS011;64245;51.282;22.494;2022-10-29T00:26:15;23.40;;;11.75;;
75649;SDS011;64245;51.282;22.494;2022-10-29T00:28:42;20.10;;;12.00;;
75649;SDS011;64245;51.282;22.494;2022-10-29T00:31:10;15.63;;;9.73;;
75649;SDS011;64245;51.282;22.494;2022-10-29T00:33:39;23.58;;;12.57;;
75649;SDS011;64245;51.282;22.494;2022-10-29T00:36:06;19.83;;;11.90;;
75649;SDS011;64245;51.282;22.494;2022-10-29T00:38:37;20.20;;;11.35;;
75649;SDS011;64245;51.282;22.494;2022-10-29T00:41:03;20.83;;;11.10;;
75649;SDS011;64245;51.282;22.494;2022-10-29T00:43:34;19.33;;;11.02;;
75649;SDS011;64245;51.282;22.494;2022-10-29T00:46:03;24.05;;;12.45;;
75649;SDS011;64245;51.282;22.494;2022-10-29T00:48:33;20.40;;;11.27;;
75649;SDS011;64245;51.282;22.494;2022-10-29T00:53:32;19.17;;;9.77;;
75649;SDS011;64245;51.282;22.494;2022-10-29T00:56:00;19.55;;;10.65;;
75649;SDS011;64245;51.282;22.494;2022-10-29T00:58:26;22.42;;;11.98;;
75649;SDS011;64245;51.282;22.494;2022-10-29T01:00:53;24.50;;;12.30;;
75649;SDS011;64245;51.282;22.494;2022-10-29T01:03:18;20.50;;;9.95;;
75649;SDS011;64245;51.282;22.494;2022-10-29T01:05:44;19.75;;;11.10;;
75649;SDS011;64245;51.282;22.494;2022-10-29T01:08:12;20.98;;;11.32;;
75649;SDS011;64245;51.282;22.494;2022-10-29T01:18:35;20.55;;;10.73;;
75649;SDS011;64245;51.282;22.494;2022-10-29T01:29:42;16.33;;;8.75;;
75649;SDS011;64245;51.282;22.494;2022-10-29T01:32:12;20.98;;;10.35;;
75649;SDS011;64245;51.282;22.494;2022-10-29T01:34:42;17.30;;;9.50;;
75649;SDS011;64245;51.282;22.494;2022-10-29T01:39:56;14.15;;;8.80;;
75649;SDS011;64245;51.282;22.494;2022-10-29T01:47:39;15.07;;;9.45;;
75649;SDS011;64245;51.282;22.494;2022-10-29T01:50:09;16.67;;;9.52;;
75649;SDS011;64245;51.282;22.494;2022-10-29T01:52:39;14.02;;;7.53;;
75649;SDS011;64245;51.282;22.494;2022-10-29T01:55:07;18.58;;;10.32;;
75649;SDS011;64245;51.282;22.494;2022-10-29T01:57:34;16.33;;;8.70;;
75649;SDS011;64245;51.282;22.494;2022-10-29T02:13:23;16.38;;;8.95;;
75649;SDS011;64245;51.282;22.494;2022-10-29T02:15:55;11.73;;;7.43;;
75649;SDS011;64245;51.282;22.494;2022-10-29T02:18:22;17.15;;;9.10;;
75649;SDS011;64245;51.282;22.494;2022-10-29T02:20:49;14.93;;;8.80;;
75649;SDS011;64245;51.282;22.494;2022-10-29T02:23:15;17.35;;;8.05;;
75649;SDS011;64245;51.282;22.494;2022-10-29T02:25:41;19.83;;;8.40;;
75649;SDS011;64245;51.282;22.494;2022-10-29T02:28:07;15.60;;;8.75;;
75649;SDS011;64245;51.282;22.494;2022-10-29T02:30:33;20.45;;;9.23;;
75649;SDS011;64245;51.282;22.494;2022-10-29T02:32:59;16.42;;;7.90;;
75649;SDS011;64245;51.282;22.494;2022-10-29T02:35:25;16.23;;;8.90;;
75649;SDS011;64245;51.282;22.494;2022-10-29T02:37:50;14.73;;;7.85;;
75649;SDS011;64245;51.282;22.494;2022-10-29T02:40:16;17.23;;;9.52;;
75649;SDS011;64245;51.282;22.494;2022-10-29T02:42:42;16.75;;;8.75;;
75649;SDS011;64245;51.282;22.494;2022-10-29T02:45:08;18.02;;;8.13;;
75649;SDS011;64245;51.282;22.494;2022-10-29T02:47:33;15.25;;;7.88;;
75649;SDS011;64245;51.282;22.494;2022-10-29T02:49:59;16.00;;;8.02;;
75649;SDS011;64245;51.282;22.494;2022-10-29T02:52:25;16.40;;;8.45;;
75649;SDS011;64245;51.282;22.494;2022-10-29T02:54:51;14.52;;;7.30;;
75649;SDS011;64245;51.282;22.494;2022-10-29T02:57:16;12.30;;;7.95;;
75649;SDS011;64245;51.282;22.494;2022-10-29T02:59:42;14.10;;;7.65;;
75649;SDS011;64245;51.282;22.494;2022-10-29T03:02:07;13.13;;;7.03;;
75649;SDS011;64245;51.282;22.494;2022-10-29T03:04:33;12.98;;;8.52;;
75649;SDS011;64245;51.282;22.494;2022-10-29T03:06:59;14.20;;;7.88;;
75649;SDS011;64245;51.282;22.494;2022-10-29T03:09:26;12.50;;;8.45;;
75649;SDS011;64245;51.282;22.494;2022-10-29T03:11:51;12.35;;;7.32;;
75649;SDS011;64245;51.282;22.494;2022-10-29T03:14:17;13.15;;;7.47;;
75649;SDS011;64245;51.282;22.494;2022-10-29T03:16:43;13.38;;;7.40;;
75649;SDS011;64245;51.282;22.494;2022-10-29T03:19:08;12.13;;;7.70;;
75649;SDS011;64245;51.282;22.494;2022-10-29T03:21:34;14.40;;;7.55;;
75649;SDS011;64245;51.282;22.494;2022-10-29T03:24:00;15.05;;;7.35;;
75649;SDS011;64245;51.282;22.494;2022-10-29T03:26:26;11.40;;;7.57;;
75649;SDS011;64245;51.282;22.494;2022-10-29T03:28:51;11.82;;;7.05;;
75649;SDS011;64245;51.282;22.494;2022-10-29T03:31:17;18.48;;;8.00;;
75649;SDS011;64245;51.282;22.494;2022-10-29T03:33:43;14.65;;;7.03;;
75649;SDS011;64245;51.282;22.494;2022-10-29T03:36:09;12.15;;;6.75;;
75649;SDS011;64245;51.282;22.494;2022-10-29T03:38:34;14.50;;;6.95;;
75649;SDS011;64245;51.282;22.494;2022-10-29T03:41:00;13.05;;;7.65;;
75649;SDS011;64245;51.282;22.494;2022-10-29T03:43:26;12.65;;;7.35;;
75649;SDS011;64245;51.282;22.494;2022-10-29T03:45:52;17.48;;;7.68;;
75649;SDS011;64245;51.282;22.494;2022-10-29T03:48:19;15.30;;;7.50;;
75649;SDS011;64245;51.282;22.494;2022-10-29T03:50:58;12.02;;;6.72;;
75649;SDS011;64245;51.282;22.494;2022-10-29T03:53:30;10.32;;;6.63;;
75649;SDS011;64245;51.282;22.494;2022-10-29T03:56:00;12.75;;;6.68;;
75649;SDS011;64245;51.282;22.494;2022-10-29T03:58:26;11.40;;;6.68;;
75649;SDS011;64245;51.282;22.494;2022-10-29T04:00:53;15.05;;;7.22;;
75649;SDS011;64245;51.282;22.494;2022-10-29T04:03:19;13.38;;;6.50;;
75649;SDS011;64245;51.282;22.494;2022-10-29T04:05:45;12.73;;;6.55;;
75649;SDS011;64245;51.282;22.494;2022-10-29T04:08:11;13.00;;;7.32;;
75649;SDS011;64245;51.282;22.494;2022-10-29T04:10:37;12.02;;;7.07;;
75649;SDS011;64245;51.282;22.494;2022-10-29T04:13:02;14.20;;;6.57;;
75649;SDS011;64245;51.282;22.494;2022-10-29T04:15:28;12.10;;;7.13;;
75649;SDS011;64245;51.282;22.494;2022-10-29T04:17:54;11.13;;;6.40;;
75649;SDS011;64245;51.282;22.494;2022-10-29T04:20:19;8.57;;;5.38;;
75649;SDS011;64245;51.282;22.494;2022-10-29T04:22:49;10.75;;;5.63;;
75649;SDS011;64245;51.282;22.494;2022-10-29T04:25:15;10.23;;;6.55;;
75649;SDS011;64245;51.282;22.494;2022-10-29T04:27:41;9.52;;;5.55;;
75649;SDS011;64245;51.282;22.494;2022-10-29T04:30:07;10.18;;;5.43;;
75649;SDS011;64245;51.282;22.494;2022-10-29T04:32:33;10.57;;;5.72;;
75649;SDS011;64245;51.282;22.494;2022-10-29T04:34:58;10.60;;;6.10;;
75649;SDS011;64245;51.282;22.494;2022-10-29T04:37:26;8.15;;;5.25;;
75649;SDS011;64245;51.282;22.494;2022-10-29T04:42:18;11.00;;;6.07;;
75649;SDS011;64245;51.282;22.494;2022-10-29T04:44:43;11.43;;;5.68;;
75649;SDS011;64245;51.282;22.494;2022-10-29T04:47:09;11.23;;;6.15;;
75649;SDS011;64245;51.282;22.494;2022-10-29T04:49:35;8.68;;;5.65;;
75649;SDS011;64245;51.282;22.494;2022-10-29T04:52:01;8.32;;;5.63;;
75649;SDS011;64245;51.282;22.494;2022-10-29T04:54:26;10.13;;;5.25;;
75649;SDS011;64245;51.282;22.494;2022-10-29T04:56:52;9.43;;;5.93;;
75649;SDS011;64245;51.282;22.494;2022-10-29T04:59:18;9.88;;;5.00;;
75649;SDS011;64245;51.282;22.494;2022-10-29T05:01:43;11.85;;;5.75;;
75649;SDS011;64245;51.282;22.494;2022-10-29T05:04:09;15.00;;;6.05;;
75649;SDS011;64245;51.282;22.494;2022-10-29T05:06:35;9.57;;;5.32;;
75649;SDS011;64245;51.282;22.494;2022-10-29T05:09:01;11.52;;;6.15;;
75649;SDS011;64245;51.282;22.494;2022-10-29T05:11:27;11.82;;;6.30;;
75649;SDS011;64245;51.282;22.494;2022-10-29T05:13:53;8.88;;;5.72;;
75649;SDS011;64245;51.282;22.494;2022-10-29T05:16:19;10.68;;;5.40;;
75649;SDS011;64245;51.282;22.494;2022-10-29T05:18:45;9.77;;;5.82;;
75649;SDS011;64245;51.282;22.494;2022-10-29T05:21:10;10.85;;;5.40;;
75649;SDS011;64245;51.282;22.494;2022-10-29T05:23:36;9.35;;;5.47;;
75649;SDS011;64245;51.282;22.494;2022-10-29T05:26:01;8.90;;;5.00;;
75649;SDS011;64245;51.282;22.494;2022-10-29T05:28:27;9.55;;;5.25;;
75649;SDS011;64245;51.282;22.494;2022-10-29T05:30:53;9.35;;;5.53;;
75649;SDS011;64245;51.282;22.494;2022-10-29T05:33:20;11.73;;;5.93;;
75649;SDS011;64245;51.282;22.494;2022-10-29T05:35:48;9.38;;;5.50;;
75649;SDS011;64245;51.282;22.494;2022-10-29T05:38:15;8.63;;;4.88;;
75649;SDS011;64245;51.282;22.494;2022-10-29T05:40:41;9.43;;;5.18;;
75649;SDS011;64245;51.282;22.494;2022-10-29T05:43:10;11.35;;;5.53;;
75649;SDS011;64245;51.282;22.494;2022-10-29T05:45:36;9.25;;;5.00;;
75649;SDS011;64245;51.282;22.494;2022-10-29T05:48:03;10.85;;;4.95;;
75649;SDS011;64245;51.282;22.494;2022-10-29T05:50:29;8.50;;;5.03;;
75649;SDS011;64245;51.282;22.494;2022-10-29T05:52:56;8.98;;;5.35;;
75649;SDS011;64245;51.282;22.494;2022-10-29T05:55:27;7.95;;;4.70;;
75649;SDS011;64245;51.282;22.494;2022-10-29T05:57:54;9.00;;;5.35;;
75649;SDS011;64245;51.282;22.494;2022-10-29T06:00:21;9.18;;;5.55;;
75649;SDS011;64245;51.282;22.494;2022-10-29T06:02:47;8.95;;;4.82;;
75649;SDS011;64245;51.282;22.494;2022-10-29T06:05:12;9.95;;;5.18;;
75649;SDS011;64245;51.282;22.494;2022-10-29T06:07:38;12.45;;;5.78;;
75649;SDS011;64245;51.282;22.494;2022-10-29T06:10:04;7.88;;;4.93;;
75649;SDS011;64245;51.282;22.494;2022-10-29T06:12:31;9.63;;;5.13;;
75649;SDS011;64245;51.282;22.494;2022-10-29T06:14:57;9.32;;;5.43;;
75649;SDS011;64245;51.282;22.494;2022-10-29T06:17:23;7.85;;;4.90;;
75649;SDS011;64245;51.282;22.494;2022-10-29T06:19:49;10.23;;;5.20;;
75649;SDS011;64245;51.282;22.494;2022-10-29T06:22:15;10.60;;;5.28;;
75649;SDS011;64245;51.282;22.494;2022-10-29T06:24:41;8.63;;;5.28;;
75649;SDS011;64245;51.282;22.494;2022-10-29T06:27:07;7.18;;;4.35;;
75649;SDS011;64245;51.282;22.494;2022-10-29T06:29:33;6.50;;;4.45;;
75649;SDS011;64245;51.282;22.494;2022-10-29T06:31:59;8.65;;;4.13;;
75649;SDS011;64245;51.282;22.494;2022-10-29T06:34:25;8.70;;;5.32;;
75649;SDS011;64245;51.282;22.494;2022-10-29T06:36:50;10.55;;;5.60;;
75649;SDS011;64245;51.282;22.494;2022-10-29T06:39:16;4.55;;;2.90;;
75649;SDS011;64245;51.282;22.494;2022-10-29T06:41:42;9.27;;;5.18;;
75649;SDS011;64245;51.282;22.494;2022-10-29T06:44:07;8.23;;;4.53;;
75649;SDS011;64245;51.282;22.494;2022-10-29T06:46:33;10.43;;;4.47;;
75649;SDS011;64245;51.282;22.494;2022-10-29T06:49:00;8.35;;;4.72;;
75649;SDS011;64245;51.282;22.494;2022-10-29T06:51:27;9.35;;;4.55;;
75649;SDS011;64245;51.282;22.494;2022-10-29T06:53:53;7.38;;;4.50;;
75649;SDS011;64245;51.282;22.494;2022-10-29T06:56:19;8.15;;;4.90;;
75649;SDS011;64245;51.282;22.494;2022-10-29T06:58:45;9.45;;;5.35;;
75649;SDS011;64245;51.282;22.494;2022-10-29T07:01:11;9.60;;;4.72;;
75649;SDS011;64245;51.282;22.494;2022-10-29T07:03:37;10.07;;;4.82;;
75649;SDS011;64245;51.282;22.494;2022-10-29T07:06:03;7.95;;;4.47;;
75649;SDS011;64245;51.282;22.494;2022-10-29T07:08:28;8.35;;;4.43;;
75649;SDS011;64245;51.282;22.494;2022-10-29T07:10:54;7.10;;;4.80;;
75649;SDS011;64245;51.282;22.494;2022-10-29T07:13:21;11.55;;;5.47;;
75649;SDS011;64245;51.282;22.494;2022-10-29T07:15:47;11.25;;;5.35;;
75649;SDS011;64245;51.282;22.494;2022-10-29T07:18:13;7.32;;;4.75;;
75649;SDS011;64245;51.282;22.494;2022-10-29T07:20:40;9.25;;;5.28;;
75649;SDS011;64245;51.282;22.494;2022-10-29T07:25:34;10.38;;;4.93;;
75649;SDS011;64245;51.282;22.494;2022-10-29T07:28:04;11.20;;;5.63;;
75649;SDS011;64245;51.282;22.494;2022-10-29T07:30:38;9.20;;;4.72;;
75649;SDS011;64245;51.282;22.494;2022-10-29T07:33:04;9.18;;;5.38;;
75649;SDS011;64245;51.282;22.494;2022-10-29T07:35:30;13.05;;;5.80;;
75649;SDS011;64245;51.282;22.494;2022-10-29T07:38:01;13.00;;;5.90;;
75649;SDS011;64245;51.282;22.494;2022-10-29T07:40:28;11.43;;;6.30;;
75649;SDS011;64245;51.282;22.494;2022-10-29T07:42:54;11.55;;;5.68;;
75649;SDS011;64245;51.282;22.494;2022-10-29T07:45:20;11.20;;;6.22;;
75649;SDS011;64245;51.282;22.494;2022-10-29T07:47:46;9.20;;;5.57;;
75649;SDS011;64245;51.282;22.494;2022-10-29T07:50:12;12.45;;;4.68;;
75649;SDS011;64245;51.282;22.494;2022-10-29T07:52:39;8.77;;;4.70;;
75649;SDS011;64245;51.282;22.494;2022-10-29T07:55:05;8.95;;;4.65;;
75649;SDS011;64245;51.282;22.494;2022-10-29T07:57:31;8.20;;;4.70;;
75649;SDS011;64245;51.282;22.494;2022-10-29T07:59:57;11.05;;;4.80;;
75649;SDS011;64245;51.282;22.494;2022-10-29T08:02:23;8.77;;;4.68;;
75649;SDS011;64245;51.282;22.494;2022-10-29T08:04:48;8.60;;;4.65;;
75649;SDS011;64245;51.282;22.494;2022-10-29T08:07:14;10.38;;;5.07;;
75649;SDS011;64245;51.282;22.494;2022-10-29T08:09:40;9.50;;;5.10;;
75649;SDS011;64245;51.282;22.494;2022-10-29T08:12:07;8.48;;;5.13;;
75649;SDS011;64245;51.282;22.494;2022-10-29T08:14:34;8.38;;;4.32;;
75649;SDS011;64245;51.282;22.494;2022-10-29T08:17:00;7.68;;;4.38;;
75649;SDS011;64245;51.282;22.494;2022-10-29T08:19:26;8.48;;;4.30;;
75649;SDS011;64245;51.282;22.494;2022-10-29T08:21:54;9.70;;;4.93;;
75649;SDS011;64245;51.282;22.494;2022-10-29T08:24:21;10.18;;;5.35;;
75649;SDS011;64245;51.282;22.494;2022-10-29T08:26:48;9.25;;;4.55;;
75649;SDS011;64245;51.282;22.494;2022-10-29T08:29:14;11.38;;;5.45;;
75649;SDS011;64245;51.282;22.494;2022-10-29T08:31:40;10.50;;;5.07;;
75649;SDS011;64245;51.282;22.494;2022-10-29T08:34:05;10.13;;;4.63;;
75649;SDS011;64245;51.282;22.494;2022-10-29T08:36:31;7.10;;;4.22;;
75649;SDS011;64245;51.282;22.494;2022-10-29T08:38:57;7.85;;;4.18;;
75649;SDS011;64245;51.282;22.494;2022-10-29T08:47:03;9.10;;;4.70;;
75649;SDS011;64245;51.282;22.494;2022-10-29T08:49:40;7.53;;;5.18;;
75649;SDS011;64245;51.282;22.494;2022-10-29T08:52:13;10.80;;;5.50;;
75649;SDS011;64245;51.282;22.494;2022-10-29T08:54:59;6.82;;;3.75;;
75649;SDS011;64245;51.282;22.494;2022-10-29T08:57:57;8.02;;;4.53;;
75649;SDS011;64245;51.282;22.494;2022-10-29T09:00:30;9.02;;;5.25;;
75649;SDS011;64245;51.282;22.494;2022-10-29T09:02:59;10.25;;;5.28;;
75649;SDS011;64245;51.282;22.494;2022-10-29T09:05:26;12.88;;;5.38;;
75649;SDS011;64245;51.282;22.494;2022-10-29T09:08:03;7.93;;;4.40;;
75649;SDS011;64245;51.282;22.494;2022-10-29T09:13:17;8.90;;;4.32;;
75649;SDS011;64245;51.282;22.494;2022-10-29T09:21:44;10.88;;;5.05;;
75649;SDS011;64245;51.282;22.494;2022-10-29T09:27:28;9.38;;;4.75;;
75649;SDS011;64245;51.282;22.494;2022-10-29T09:32:45;7.78;;;4.68;;
75649;SDS011;64245;51.282;22.494;2022-10-29T09:35:21;8.95;;;4.55;;
75649;SDS011;64245;51.282;22.494;2022-10-29T09:38:17;8.13;;;4.35;;
75649;SDS011;64245;51.282;22.494;2022-10-29T09:40:45;9.10;;;5.53;;
75649;SDS011;64245;51.282;22.494;2022-10-29T09:51:55;10.15;;;4.40;;
75649;SDS011;64245;51.282;22.494;2022-10-29T09:54:26;7.60;;;4.45;;
75649;SDS011;64245;51.282;22.494;2022-10-29T09:56:53;14.07;;;5.20;;
75649;SDS011;64245;51.282;22.494;2022-10-29T10:01:49;13.27;;;5.63;;
75649;SDS011;64245;51.282;22.494;2022-10-29T10:04:23;10.48;;;4.65;;
75649;SDS011;64245;51.282;22.494;2022-10-29T10:06:59;9.55;;;4.57;;
75649;SDS011;64245;51.282;22.494;2022-10-29T10:12:42;7.10;;;4.25;;
75649;SDS011;64245;51.282;22.494;2022-10-29T10:17:54;8.95;;;4.68;;
75649;SDS011;64245;51.282;22.494;2022-10-29T10:22:58;9.20;;;4.75;;
75649;SDS011;64245;51.282;22.494;2022-10-29T10:25:34;9.57;;;5.43;;
75649;SDS011;64245;51.282;22.494;2022-10-29T10:28:42;9.88;;;4.55;;
75649;SDS011;64245;51.282;22.494;2022-10-29T10:33:29;10.68;;;5.22;;
75649;SDS011;64245;51.282;22.494;2022-10-29T10:35:59;8.70;;;5.22;;
75649;SDS011;64245;51.282;22.494;2022-10-29T10:38:43;7.15;;;4.90;;
75649;SDS011;64245;51.282;22.494;2022-10-29T10:41:12;9.43;;;5.35;;
75649;SDS011;64245;51.282;22.494;2022-10-29T10:43:41;9.95;;;5.13;;
75649;SDS011;64245;51.282;22.494;2022-10-29T10:46:14;9.45;;;5.38;;
75649;SDS011;64245;51.282;22.494;2022-10-29T10:48:58;9.73;;;5.65;;
75649;SDS011;64245;51.282;22.494;2022-10-29T10:51:31;9.70;;;4.43;;
75649;SDS011;64245;51.282;22.494;2022-10-29T10:53:59;9.95;;;4.68;;
75649;SDS011;64245;51.282;22.494;2022-10-29T10:56:28;11.43;;;5.28;;
75649;SDS011;64245;51.282;22.494;2022-10-29T10:58:56;9.90;;;5.28;;
75649;SDS011;64245;51.282;22.494;2022-10-29T11:01:36;8.00;;;4.40;;
75649;SDS011;64245;51.282;22.494;2022-10-29T11:06:49;9.48;;;5.30;;
75649;SDS011;64245;51.282;22.494;2022-10-29T11:14:37;8.15;;;5.35;;
75649;SDS011;64245;51.282;22.494;2022-10-29T11:17:24;10.90;;;5.80;;
75649;SDS011;64245;51.282;22.494;2022-10-29T11:19:53;12.07;;;5.78;;
75649;SDS011;64245;51.282;22.494;2022-10-29T11:25:19;10.07;;;5.15;;
75649;SDS011;64245;51.282;22.494;2022-10-29T11:27:53;9.82;;;5.43;;
75649;SDS011;64245;51.282;22.494;2022-10-29T11:30:25;12.43;;;5.90;;
75649;SDS011;64245;51.282;22.494;2022-10-29T11:32:59;9.25;;;5.55;;
75649;SDS011;64245;51.282;22.494;2022-10-29T11:38:29;11.00;;;5.90;;
75649;SDS011;64245;51.282;22.494;2022-10-29T11:41:03;11.43;;;6.20;;
75649;SDS011;64245;51.282;22.494;2022-10-29T11:43:46;11.25;;;5.80;;
75649;SDS011;64245;51.282;22.494;2022-10-29T11:49:00;12.85;;;6.40;;
75649;SDS011;64245;51.282;22.494;2022-10-29T11:51:41;11.20;;;6.05;;
75649;SDS011;64245;51.282;22.494;2022-10-29T11:54:35;12.30;;;6.10;;
75649;SDS011;64245;51.282;22.494;2022-10-29T11:57:14;14.48;;;6.22;;
75649;SDS011;64245;51.282;22.494;2022-10-29T12:02:43;19.65;;;7.40;;
75649;SDS011;64245;51.282;22.494;2022-10-29T12:05:34;15.73;;;7.93;;
75649;SDS011;64245;51.282;22.494;2022-10-29T12:18:45;14.50;;;7.00;;
75649;SDS011;64245;51.282;22.494;2022-10-29T12:23:52;14.23;;;7.05;;
75649;SDS011;64245;51.282;22.494;2022-10-29T12:26:28;16.40;;;8.00;;
75649;SDS011;64245;51.282;22.494;2022-10-29T12:31:49;11.63;;;6.38;;
75649;SDS011;64245;51.282;22.494;2022-10-29T12:37:08;12.80;;;6.63;;
75649;SDS011;64245;51.282;22.494;2022-10-29T12:39:46;14.13;;;6.63;;
75649;SDS011;64245;51.282;22.494;2022-10-29T12:42:20;13.43;;;6.43;;
75649;SDS011;64245;51.282;22.494;2022-10-29T12:47:32;13.07;;;6.65;;
75649;SDS011;64245;51.282;22.494;2022-10-29T12:50:13;13.52;;;6.70;;
75649;SDS011;64245;51.282;22.494;2022-10-29T12:53:05;14.60;;;6.25;;
75649;SDS011;64245;51.282;22.494;2022-10-29T12:55:42;13.35;;;6.25;;
75649;SDS011;64245;51.282;22.494;2022-10-29T13:09:30;15.00;;;5.78;;
75649;SDS011;64245;51.282;22.494;2022-10-29T13:14:28;10.70;;;5.47;;
75649;SDS011;64245;51.282;22.494;2022-10-29T13:17:04;10.00;;;4.93;;
75649;SDS011;64245;51.282;22.494;2022-10-29T13:19:53;14.27;;;5.95;;
75649;SDS011;64245;51.282;22.494;2022-10-29T13:30:39;13.63;;;7.25;;
75649;SDS011;64245;51.282;22.494;2022-10-29T13:35:50;9.50;;;5.03;;
75649;SDS011;64245;51.282;22.494;2022-10-29T13:49:22;20.40;;;6.85;;
75649;SDS011;64245;51.282;22.494;2022-10-29T13:51:52;12.73;;;5.68;;
75649;SDS011;64245;51.282;22.494;2022-10-29T13:54:27;13.85;;;5.80;;
75649;SDS011;64245;51.282;22.494;2022-10-29T13:57:01;12.15;;;5.30;;
75649;SDS011;64245;51.282;22.494;2022-10-29T13:59:40;12.05;;;5.32;;
75649;SDS011;64245;51.282;22.494;2022-10-29T14:02:15;12.10;;;5.78;;
75649;SDS011;64245;51.282;22.494;2022-10-29T14:04:53;13.13;;;6.10;;
75649;SDS011;64245;51.282;22.494;2022-10-29T14:07:36;16.10;;;6.93;;
75649;SDS011;64245;51.282;22.494;2022-10-29T14:10:17;12.25;;;6.20;;
75649;SDS011;64245;51.282;22.494;2022-10-29T14:12:47;13.52;;;7.13;;
75649;SDS011;64245;51.282;22.494;2022-10-29T14:15:16;12.70;;;6.25;;
75649;SDS011;64245;51.282;22.494;2022-10-29T14:17:43;10.93;;;6.18;;
75649;SDS011;64245;51.282;22.494;2022-10-29T14:20:18;12.20;;;6.47;;
75649;SDS011;64245;51.282;22.494;2022-10-29T14:22:47;18.25;;;8.85;;
75649;SDS011;64245;51.282;22.494;2022-10-29T14:25:27;19.27;;;8.32;;
75649;SDS011;64245;51.282;22.494;2022-10-29T14:31:02;19.08;;;8.57;;
75649;SDS011;64245;51.282;22.494;2022-10-29T14:33:31;16.52;;;8.32;;
75649;SDS011;64245;51.282;22.494;2022-10-29T14:38:48;14.18;;;7.63;;
75649;SDS011;64245;51.282;22.494;2022-10-29T14:41:16;17.25;;;8.25;;
75649;SDS011;64245;51.282;22.494;2022-10-29T14:43:43;16.92;;;8.02;;
75649;SDS011;64245;51.282;22.494;2022-10-29T14:46:12;18.13;;;8.68;;
75649;SDS011;64245;51.282;22.494;2022-10-29T14:49:32;18.60;;;9.05;;
75649;SDS011;64245;51.282;22.494;2022-10-29T14:52:00;20.60;;;8.90;;
75649;SDS011;64245;51.282;22.494;2022-10-29T14:54:29;19.38;;;9.70;;
75649;SDS011;64245;51.282;22.494;2022-10-29T14:57:00;19.38;;;8.90;;
75649;SDS011;64245;51.282;22.494;2022-10-29T14:59:29;18.20;;;8.32;;
75649;SDS011;64245;51.282;22.494;2022-10-29T15:01:57;19.02;;;8.55;;
75649;SDS011;64245;51.282;22.494;2022-10-29T15:04:25;20.48;;;8.45;;
75649;SDS011;64245;51.282;22.494;2022-10-29T15:09:40;17.95;;;7.22;;
75649;SDS011;64245;51.282;22.494;2022-10-29T15:12:14;17.23;;;7.85;;
75649;SDS011;64245;51.282;22.494;2022-10-29T15:14:45;18.35;;;8.13;;
75649;SDS011;64245;51.282;22.494;2022-10-29T15:17:22;14.27;;;7.25;;
75649;SDS011;64245;51.282;22.494;2022-10-29T15:19:53;13.75;;;8.60;;
75649;SDS011;64245;51.282;22.494;2022-10-29T15:22:33;16.67;;;7.57;;
75649;SDS011;64245;51.282;22.494;2022-10-29T15:25:02;15.10;;;8.25;;
75649;SDS011;64245;51.282;22.494;2022-10-29T15:27:40;16.20;;;8.07;;
75649;SDS011;64245;51.282;22.494;2022-10-29T15:30:07;19.15;;;7.50;;
75649;SDS011;64245;51.282;22.494;2022-10-29T15:32:42;25.10;;;8.75;;
75649;SDS011;64245;51.282;22.494;2022-10-29T15:35:08;18.30;;;9.48;;
75649;SDS011;64245;51.282;22.494;2022-10-29T15:37:39;16.52;;;7.85;;
75649;SDS011;64245;51.282;22.494;2022-10-29T15:42:38;16.23;;;8.43;;
75649;SDS011;64245;51.282;22.494;2022-10-29T15:47:43;15.95;;;8.38;;
75649;SDS011;64245;51.282;22.494;2022-10-29T15:50:16;15.52;;;7.53;;
75649;SDS011;64245;51.282;22.494;2022-10-29T15:55:24;18.48;;;9.77;;
75649;SDS011;64245;51.282;22.494;2022-10-29T15:57:54;20.80;;;11.05;;
75649;SDS011;64245;51.282;22.494;2022-10-29T16:00:28;23.13;;;11.90;;
75649;SDS011;64245;51.282;22.494;2022-10-29T16:03:00;17.65;;;9.20;;
75649;SDS011;64245;51.282;22.494;2022-10-29T16:05:45;20.65;;;9.90;;
75649;SDS011;64245;51.282;22.494;2022-10-29T16:08:37;17.98;;;8.93;;
75649;SDS011;64245;51.282;22.494;2022-10-29T16:11:06;21.05;;;9.63;;
75649;SDS011;64245;51.282;22.494;2022-10-29T16:13:37;19.83;;;9.70;;
75649;SDS011;64245;51.282;22.494;2022-10-29T16:16:03;20.58;;;10.85;;
75649;SDS011;64245;51.282;22.494;2022-10-29T16:18:30;23.75;;;10.60;;
75649;SDS011;64245;51.282;22.494;2022-10-29T16:20:59;22.23;;;10.77;;
75649;SDS011;64245;51.282;22.494;2022-10-29T16:23:28;17.48;;;9.77;;
75649;SDS011;64245;51.282;22.494;2022-10-29T16:25:55;21.50;;;9.57;;
75649;SDS011;64245;51.282;22.494;2022-10-29T16:28:23;18.60;;;9.25;;
75649;SDS011;64245;51.282;22.494;2022-10-29T16:30:51;21.25;;;10.27;;
75649;SDS011;64245;51.282;22.494;2022-10-29T16:33:18;18.63;;;8.80;;
75649;SDS011;64245;51.282;22.494;2022-10-29T16:35:44;19.05;;;10.18;;
75649;SDS011;64245;51.282;22.494;2022-10-29T16:38:10;20.88;;;12.10;;
75649;SDS011;64245;51.282;22.494;2022-10-29T16:40:37;18.35;;;10.02;;
75649;SDS011;64245;51.282;22.494;2022-10-29T16:43:03;18.60;;;10.13;;
75649;SDS011;64245;51.282;22.494;2022-10-29T16:45:29;22.05;;;10.80;;
75649;SDS011;64245;51.282;22.494;2022-10-29T16:47:55;20.60;;;10.70;;
75649;SDS011;64245;51.282;22.494;2022-10-29T16:50:22;18.67;;;9.82;;
75649;SDS011;64245;51.282;22.494;2022-10-29T16:52:56;19.05;;;10.35;;
75649;SDS011;64245;51.282;22.494;2022-10-29T16:55:24;20.70;;;12.38;;
75649;SDS011;64245;51.282;22.494;2022-10-29T16:57:51;24.33;;;11.57;;
75649;SDS011;64245;51.282;22.494;2022-10-29T17:00:19;20.23;;;10.65;;
75649;SDS011;64245;51.282;22.494;2022-10-29T17:02:45;20.50;;;10.45;;
75649;SDS011;64245;51.282;22.494;2022-10-29T17:05:11;18.02;;;10.02;;
75649;SDS011;64245;51.282;22.494;2022-10-29T17:07:40;18.85;;;11.63;;
75649;SDS011;64245;51.282;22.494;2022-10-29T17:10:06;24.23;;;11.98;;
75649;SDS011;64245;51.282;22.494;2022-10-29T17:12:33;23.48;;;12.55;;
75649;SDS011;64245;51.282;22.494;2022-10-29T17:14:59;24.55;;;12.07;;
75649;SDS011;64245;51.282;22.494;2022-10-29T17:17:25;28.08;;;12.20;;
75649;SDS011;64245;51.282;22.494;2022-10-29T17:22:19;28.58;;;13.38;;
75649;SDS011;64245;51.282;22.494;2022-10-29T17:24:44;28.15;;;14.43;;
75649;SDS011;64245;51.282;22.494;2022-10-29T17:27:11;27.40;;;14.10;;
75649;SDS011;64245;51.282;22.494;2022-10-29T17:29:37;28.73;;;14.85;;
75649;SDS011;64245;51.282;22.494;2022-10-29T17:32:04;27.25;;;13.30;;
75649;SDS011;64245;51.282;22.494;2022-10-29T17:34:31;26.15;;;13.23;;
75649;SDS011;64245;51.282;22.494;2022-10-29T17:36:57;27.77;;;14.43;;
75649;SDS011;64245;51.282;22.494;2022-10-29T17:39:22;22.77;;;12.40;;
75649;SDS011;64245;51.282;22.494;2022-10-29T17:41:49;23.38;;;13.02;;